AZU8003 LPPR-SBRF
Flight info
| Callsign | AZU8003 |
|---|---|
| Flight time | N/A |
| Altitude | 35000 |
| Route | MANIK DCT BEXAL UN866 KONBA N866 GOMER Y422 URQUI/N0452F360 T770 LIMAL N873 IPERA UN873 CVS/N0418F280 UB623 RAKUD/N0387F240 B623 OBKAD/N0409F280 UB623 UBRUT |
| Aircraft | B763/H-SDE3FGHIM3RWXY/LB1 |
Departure
| Time | 2026-05-04 07:16 |
|---|---|
| Airport | Francisco de Sá Carneiro Airport (LPPR) |
Arrival
| Time | N/A |
|---|---|
| Airport | Recife/Guararapes - Gilberto Freyre International Airport (SBRF) |
| Time | Latitude | Longitude | Altitude | Speed | Heading |
|---|---|---|---|---|---|
| 2026-05-04 06:44 | 41.23508 | -8.67290 | 243 ft | 0 kts | 114° |
| 2026-05-04 07:03 | 41.23512 | -8.67301 | 242 ft | 2 kts | 114° |
| 2026-05-04 07:03 | 41.23518 | -8.67319 | 242 ft | 2 kts | 114° |
| 2026-05-04 07:03 | 41.23524 | -8.67337 | 241 ft | 2 kts | 116° |
| 2026-05-04 07:03 | 41.23531 | -8.67355 | 240 ft | 2 kts | 126° |
| 2026-05-04 07:04 | 41.23541 | -8.67370 | 239 ft | 2 kts | 132° |
| 2026-05-04 07:04 | 41.23551 | -8.67384 | 238 ft | 2 kts | 140° |
| 2026-05-04 07:04 | 41.23563 | -8.67396 | 238 ft | 2 kts | 147° |
| 2026-05-04 07:04 | 41.23576 | -8.67406 | 237 ft | 2 kts | 154° |
| 2026-05-04 07:05 | 41.23590 | -8.67414 | 236 ft | 2 kts | 161° |
| 2026-05-04 07:05 | 41.23604 | -8.67419 | 236 ft | 2 kts | 168° |
| 2026-05-04 07:05 | 41.23611 | -8.67421 | 236 ft | 0 kts | 171° |
| 2026-05-04 07:12 | 41.23535 | -8.67403 | 238 ft | 4 kts | 169° |
| 2026-05-04 07:12 | 41.23513 | -8.67398 | 238 ft | 3 kts | 169° |
| 2026-05-04 07:12 | 41.23479 | -8.67389 | 239 ft | 6 kts | 169° |
| 2026-05-04 07:12 | 41.23433 | -8.67377 | 240 ft | 6 kts | 168° |
| 2026-05-04 07:13 | 41.23389 | -8.67368 | 240 ft | 6 kts | 178° |
| 2026-05-04 07:13 | 41.23349 | -8.67392 | 239 ft | 7 kts | 230° |
| 2026-05-04 07:13 | 41.23327 | -8.67469 | 236 ft | 9 kts | 255° |
| 2026-05-04 07:14 | 41.23307 | -8.67728 | 226 ft | 2 kts | 330° |
| 2026-05-04 07:14 | 41.23331 | -8.67737 | 225 ft | 9 kts | 347° |
| 2026-05-04 07:15 | 41.23506 | -8.67785 | 222 ft | 44 kts | 349° |
| 2026-05-04 07:15 | 41.23945 | -8.67899 | 214 ft | 83 kts | 349° |
| 2026-05-04 07:15 | 41.24642 | -8.68083 | 198 ft | 122 kts | 348° |
| 2026-05-04 07:15 | 41.25623 | -8.68340 | 176 ft | 163 kts | 348° |
| 2026-05-04 07:16 | 41.26780 | -8.68658 | 602 ft | 169 kts | 347° |
| 2026-05-04 07:16 | 41.27920 | -8.69026 | 1146 ft | 174 kts | 346° |
| 2026-05-04 07:16 | 41.29106 | -8.69402 | 1690 ft | 179 kts | 347° |
| 2026-05-04 07:16 | 41.30357 | -8.69787 | 2123 ft | 188 kts | 347° |
| 2026-05-04 07:17 | 41.31678 | -8.70186 | 2404 ft | 203 kts | 347° |
| 2026-05-04 07:17 | 41.33091 | -8.70562 | 2737 ft | 216 kts | 348° |
| 2026-05-04 07:17 | 41.34639 | -8.70938 | 3084 ft | 232 kts | 349° |
| 2026-05-04 07:17 | 41.36270 | -8.71313 | 3518 ft | 246 kts | 349° |
| 2026-05-04 07:18 | 41.37969 | -8.71709 | 4283 ft | 248 kts | 349° |
| 2026-05-04 07:18 | 41.39695 | -8.72013 | 4866 ft | 258 kts | 2° |
| 2026-05-04 07:18 | 41.41418 | -8.71333 | 5571 ft | 264 kts | 32° |
| 2026-05-04 07:18 | 41.42687 | -8.69570 | 6291 ft | 272 kts | 60° |
| 2026-05-04 07:19 | 41.43251 | -8.67168 | 7021 ft | 279 kts | 77° |
| 2026-05-04 07:19 | 41.43571 | -8.64637 | 7732 ft | 284 kts | 85° |
| 2026-05-04 07:19 | 41.43259 | -8.62031 | 8399 ft | 293 kts | 113° |
| 2026-05-04 07:19 | 41.42065 | -8.59842 | 9123 ft | 297 kts | 141° |
| 2026-05-04 07:20 | 41.40261 | -8.58575 | 9813 ft | 299 kts | 167° |
| 2026-05-04 07:20 | 41.38208 | -8.58068 | 10430 ft | 306 kts | 171° |
| 2026-05-04 07:20 | 41.36027 | -8.57520 | 10518 ft | 334 kts | 170° |
| 2026-05-04 07:20 | 41.33724 | -8.56923 | 11252 ft | 340 kts | 170° |
| 2026-05-04 07:22 | 41.16872 | -8.52535 | 16151 ft | 367 kts | 171° |
| 2026-05-04 07:22 | 41.14376 | -8.51886 | 16770 ft | 371 kts | 171° |
| 2026-05-04 07:23 | 41.11836 | -8.51229 | 17380 ft | 374 kts | 172° |
| 2026-05-04 07:23 | 41.09255 | -8.50992 | 17936 ft | 374 kts | 188° |
| 2026-05-04 07:23 | 41.06697 | -8.51561 | 18545 ft | 373 kts | 195° |
| 2026-05-04 07:23 | 41.04134 | -8.52224 | 19128 ft | 378 kts | 194° |
| 2026-05-04 07:24 | 41.01573 | -8.52905 | 19745 ft | 381 kts | 194° |
| 2026-05-04 07:24 | 40.98938 | -8.53609 | 20354 ft | 384 kts | 195° |
| 2026-05-04 07:24 | 40.96318 | -8.54313 | 20940 ft | 388 kts | 195° |
| 2026-05-04 07:24 | 40.93694 | -8.55020 | 21528 ft | 391 kts | 195° |
| 2026-05-04 07:25 | 40.90999 | -8.55746 | 22091 ft | 394 kts | 195° |
| 2026-05-04 07:26 | 40.71754 | -8.60922 | 25484 ft | 414 kts | 195° |
| 2026-05-04 07:27 | 40.68987 | -8.61939 | 25845 ft | 413 kts | 206° |
| 2026-05-04 07:27 | 40.66379 | -8.63499 | 26251 ft | 412 kts | 210° |
| 2026-05-04 07:27 | 40.63775 | -8.65137 | 26657 ft | 414 kts | 210° |
| 2026-05-04 07:27 | 40.61177 | -8.66790 | 27086 ft | 416 kts | 210° |
| 2026-05-04 07:28 | 40.58573 | -8.68454 | 27447 ft | 418 kts | 210° |
| 2026-05-04 07:28 | 40.55961 | -8.70127 | 27836 ft | 420 kts | 210° |
| 2026-05-04 07:28 | 40.53326 | -8.71816 | 28200 ft | 422 kts | 210° |
| 2026-05-04 07:28 | 40.50702 | -8.73499 | 28568 ft | 424 kts | 210° |
| 2026-05-04 07:29 | 40.48044 | -8.75202 | 28891 ft | 426 kts | 210° |
| 2026-05-04 07:29 | 40.45394 | -8.76898 | 29274 ft | 427 kts | 210° |
| 2026-05-04 07:29 | 40.42706 | -8.78618 | 29608 ft | 429 kts | 210° |
| 2026-05-04 07:29 | 40.40039 | -8.80324 | 29912 ft | 431 kts | 210° |
| 2026-05-04 07:30 | 40.37350 | -8.82041 | 30223 ft | 433 kts | 210° |
| 2026-05-04 07:30 | 40.34636 | -8.83773 | 30518 ft | 435 kts | 210° |
| 2026-05-04 07:30 | 40.31888 | -8.85525 | 30751 ft | 437 kts | 210° |
| 2026-05-04 07:30 | 40.29159 | -8.87263 | 31060 ft | 437 kts | 210° |
| 2026-05-04 07:31 | 40.26408 | -8.89014 | 31296 ft | 439 kts | 210° |
| 2026-05-04 07:31 | 40.23672 | -8.90753 | 31549 ft | 440 kts | 211° |
| 2026-05-04 07:33 | 40.04592 | -9.02840 | 33006 ft | 433 kts | 211° |
| 2026-05-04 07:33 | 40.01901 | -9.04540 | 33015 ft | 430 kts | 211° |
| 2026-05-04 07:33 | 39.96514 | -9.07937 | 33000 ft | 432 kts | 211° |
| 2026-05-04 07:34 | 39.91113 | -9.11337 | 33002 ft | 431 kts | 211° |
| 2026-05-04 07:34 | 39.85698 | -9.14739 | 33023 ft | 431 kts | 212° |
| 2026-05-04 07:35 | 39.80328 | -9.18107 | 33025 ft | 431 kts | 211° |
| 2026-05-04 07:35 | 39.74906 | -9.21502 | 33012 ft | 431 kts | 212° |
| 2026-05-04 07:36 | 39.69516 | -9.24871 | 33028 ft | 430 kts | 212° |
| 2026-05-04 07:38 | 39.47996 | -9.38261 | 33197 ft | 426 kts | 212° |
| 2026-05-04 07:38 | 39.42638 | -9.41581 | 33411 ft | 426 kts | 212° |
| 2026-05-04 07:39 | 39.39973 | -9.43231 | 33519 ft | 426 kts | 212° |
| 2026-05-04 07:39 | 39.37313 | -9.44875 | 33626 ft | 426 kts | 212° |
| 2026-05-04 07:39 | 39.34659 | -9.46514 | 33730 ft | 424 kts | 213° |
| 2026-05-04 07:39 | 39.32021 | -9.48143 | 33834 ft | 423 kts | 213° |
| 2026-05-04 07:40 | 39.29361 | -9.49784 | 33944 ft | 423 kts | 213° |
| 2026-05-04 07:40 | 39.26714 | -9.51415 | 34043 ft | 424 kts | 213° |
| 2026-05-04 07:40 | 39.21334 | -9.54727 | 34069 ft | 426 kts | 213° |
| 2026-05-04 07:41 | 39.16061 | -9.57964 | 34064 ft | 420 kts | 213° |
| 2026-05-04 07:41 | 39.10747 | -9.61226 | 34071 ft | 423 kts | 213° |
| 2026-05-04 07:42 | 39.05467 | -9.64458 | 34067 ft | 422 kts | 213° |
| 2026-05-04 07:42 | 39.00190 | -9.67684 | 34079 ft | 420 kts | 212° |
| 2026-05-04 07:43 | 38.94884 | -9.70923 | 34085 ft | 422 kts | 212° |
| 2026-05-04 07:43 | 38.89608 | -9.74137 | 34084 ft | 420 kts | 212° |
| 2026-05-04 07:44 | 38.84321 | -9.77353 | 34082 ft | 419 kts | 212° |
| 2026-05-04 07:44 | 38.79050 | -9.80554 | 34076 ft | 419 kts | 212° |
| 2026-05-04 07:45 | 38.73796 | -9.83740 | 34082 ft | 419 kts | 212° |
| 2026-05-04 07:45 | 38.68541 | -9.86920 | 34084 ft | 419 kts | 212° |
| 2026-05-04 07:46 | 38.63270 | -9.90105 | 34077 ft | 419 kts | 212° |
| 2026-05-04 07:46 | 38.57989 | -9.93293 | 34085 ft | 420 kts | 212° |
| 2026-05-04 07:47 | 38.52713 | -9.96470 | 34083 ft | 418 kts | 212° |
| 2026-05-04 07:49 | 38.31701 | -10.09075 | 34087 ft | 419 kts | 212° |
| 2026-05-04 07:49 | 38.26441 | -10.12217 | 34087 ft | 417 kts | 212° |
| 2026-05-04 07:50 | 38.21176 | -10.15358 | 34094 ft | 418 kts | 212° |
| 2026-05-04 07:50 | 38.15934 | -10.18481 | 34091 ft | 418 kts | 212° |
| 2026-05-04 07:51 | 38.10680 | -10.21604 | 34096 ft | 417 kts | 212° |
| 2026-05-04 07:51 | 38.05435 | -10.24717 | 34097 ft | 416 kts | 212° |
| 2026-05-04 07:52 | 38.00179 | -10.27834 | 34100 ft | 417 kts | 212° |
| 2026-05-04 07:52 | 37.94931 | -10.30938 | 34097 ft | 417 kts | 212° |
| 2026-05-04 07:54 | 37.73956 | -10.43302 | 34098 ft | 416 kts | 212° |
| 2026-05-04 07:55 | 37.68740 | -10.46364 | 34097 ft | 415 kts | 212° |
| 2026-05-04 07:55 | 37.63495 | -10.49440 | 34101 ft | 415 kts | 212° |
| 2026-05-04 07:56 | 37.58274 | -10.52496 | 34100 ft | 415 kts | 212° |
| 2026-05-04 07:56 | 37.53031 | -10.55559 | 34101 ft | 414 kts | 212° |
| 2026-05-04 07:57 | 37.47798 | -10.58613 | 34102 ft | 415 kts | 212° |
| 2026-05-04 07:57 | 37.42561 | -10.61665 | 34100 ft | 415 kts | 212° |
| 2026-05-04 07:58 | 37.37323 | -10.64711 | 34101 ft | 415 kts | 212° |
| 2026-05-04 07:58 | 37.32095 | -10.67747 | 34114 ft | 415 kts | 211° |
| 2026-05-04 07:59 | 37.26867 | -10.70779 | 34117 ft | 416 kts | 211° |
| 2026-05-04 07:59 | 37.21617 | -10.73818 | 34114 ft | 415 kts | 211° |
| 2026-05-04 08:00 | 37.16374 | -10.76849 | 34117 ft | 415 kts | 211° |
| 2026-05-04 08:02 | 36.95472 | -10.88887 | 34111 ft | 414 kts | 211° |
| 2026-05-04 08:02 | 36.90225 | -10.91897 | 34113 ft | 413 kts | 212° |
| 2026-05-04 08:03 | 36.85042 | -10.94865 | 34113 ft | 411 kts | 212° |
| 2026-05-04 08:03 | 36.79832 | -10.97846 | 34114 ft | 412 kts | 212° |
| 2026-05-04 08:04 | 36.74650 | -11.00806 | 34112 ft | 411 kts | 212° |
| 2026-05-04 08:04 | 36.69446 | -11.03773 | 34113 ft | 410 kts | 212° |
| 2026-05-04 08:05 | 36.64279 | -11.06716 | 34113 ft | 410 kts | 212° |
| 2026-05-04 08:05 | 36.59087 | -11.09668 | 34113 ft | 411 kts | 212° |
| 2026-05-04 08:06 | 36.53877 | -11.12626 | 34114 ft | 410 kts | 212° |
| 2026-05-04 08:06 | 36.48707 | -11.15557 | 34114 ft | 409 kts | 212° |
| 2026-05-04 08:08 | 36.28015 | -11.27244 | 34114 ft | 408 kts | 212° |
| 2026-05-04 08:11 | 36.04860 | -11.40242 | 34113 ft | 406 kts | 213° |
| 2026-05-04 08:11 | 35.97204 | -11.44549 | 34110 ft | 402 kts | 216° |
| 2026-05-04 08:12 | 35.92629 | -11.48335 | 34116 ft | 396 kts | 223° |
| 2026-05-04 08:12 | 35.88175 | -11.52273 | 34115 ft | 394 kts | 223° |
| 2026-05-04 08:13 | 35.83711 | -11.56202 | 34118 ft | 395 kts | 223° |
| 2026-05-04 08:13 | 35.79223 | -11.60139 | 34118 ft | 396 kts | 223° |
| 2026-05-04 08:14 | 35.74756 | -11.64050 | 34116 ft | 397 kts | 223° |
| 2026-05-04 08:16 | 35.56704 | -11.79798 | 34132 ft | 399 kts | 222° |
| 2026-05-04 08:16 | 35.52179 | -11.83730 | 34133 ft | 400 kts | 222° |
| 2026-05-04 08:17 | 35.47637 | -11.87673 | 34134 ft | 401 kts | 222° |
| 2026-05-04 08:17 | 35.43076 | -11.91626 | 34130 ft | 401 kts | 222° |
| 2026-05-04 08:19 | 35.24838 | -12.07379 | 34134 ft | 402 kts | 222° |
| 2026-05-04 08:20 | 35.20268 | -12.11312 | 34131 ft | 403 kts | 222° |
| 2026-05-04 08:20 | 35.15678 | -12.15257 | 34132 ft | 404 kts | 222° |
| 2026-05-04 08:21 | 35.11116 | -12.19172 | 34130 ft | 404 kts | 222° |
| 2026-05-04 08:21 | 35.06498 | -12.23130 | 34130 ft | 404 kts | 222° |
| 2026-05-04 08:22 | 35.01916 | -12.27051 | 34129 ft | 404 kts | 222° |
| 2026-05-04 08:24 | 34.83516 | -12.42745 | 34124 ft | 406 kts | 222° |
| 2026-05-04 08:24 | 34.78874 | -12.46689 | 34118 ft | 405 kts | 222° |
| 2026-05-04 08:25 | 34.74272 | -12.50596 | 34125 ft | 406 kts | 222° |
| 2026-05-04 08:25 | 34.69643 | -12.54518 | 34119 ft | 405 kts | 222° |
| 2026-05-04 08:27 | 34.51148 | -12.70140 | 34137 ft | 407 kts | 221° |
| 2026-05-04 08:28 | 34.46500 | -12.74052 | 34137 ft | 405 kts | 222° |
| 2026-05-04 08:28 | 34.41866 | -12.77947 | 34134 ft | 407 kts | 222° |
| 2026-05-04 08:29 | 34.37204 | -12.81862 | 34137 ft | 407 kts | 221° |
| 2026-05-04 08:31 | 34.18704 | -12.97403 | 34136 ft | 406 kts | 222° |
| 2026-05-04 08:33 | 34.00180 | -13.12982 | 34130 ft | 407 kts | 222° |
| 2026-05-04 08:35 | 33.81639 | -13.28489 | 34123 ft | 406 kts | 221° |
| 2026-05-04 08:35 | 33.77007 | -13.32350 | 34128 ft | 406 kts | 221° |
| 2026-05-04 08:37 | 33.60720 | -13.45888 | 34121 ft | 408 kts | 221° |
| 2026-05-04 08:38 | 33.56055 | -13.49753 | 34114 ft | 409 kts | 220° |
| 2026-05-04 08:38 | 33.51383 | -13.53618 | 34110 ft | 408 kts | 221° |
| 2026-05-04 08:40 | 33.32637 | -13.69079 | 34122 ft | 410 kts | 219° |
| 2026-05-04 08:41 | 33.27930 | -13.72949 | 34126 ft | 410 kts | 219° |
| 2026-05-04 08:41 | 33.23244 | -13.76793 | 34117 ft | 409 kts | 219° |
| 2026-05-04 08:42 | 33.18533 | -13.80657 | 34124 ft | 414 kts | 219° |
| 2026-05-04 08:42 | 33.13793 | -13.84532 | 34117 ft | 415 kts | 219° |
| 2026-05-04 08:43 | 33.09021 | -13.88406 | 34114 ft | 413 kts | 219° |
| 2026-05-04 08:43 | 33.04297 | -13.92238 | 34115 ft | 412 kts | 219° |
| 2026-05-04 08:44 | 32.99565 | -13.96071 | 34113 ft | 413 kts | 219° |
| 2026-05-04 08:46 | 32.80558 | -14.11416 | 34108 ft | 413 kts | 218° |
| 2026-05-04 08:46 | 32.75792 | -14.15251 | 34109 ft | 412 kts | 219° |
| 2026-05-04 08:47 | 32.71067 | -14.19049 | 34111 ft | 413 kts | 218° |
| 2026-05-04 08:47 | 32.66288 | -14.22884 | 34108 ft | 412 kts | 219° |
| 2026-05-04 08:48 | 32.61561 | -14.26673 | 34111 ft | 413 kts | 219° |
| 2026-05-04 08:48 | 32.56808 | -14.30479 | 34106 ft | 413 kts | 218° |
| 2026-05-04 08:49 | 32.52034 | -14.34294 | 34110 ft | 412 kts | 218° |
| 2026-05-04 08:50 | 32.35418 | -14.47540 | 34103 ft | 412 kts | 218° |
| 2026-05-04 08:51 | 32.30679 | -14.51307 | 34107 ft | 411 kts | 218° |
| 2026-05-04 08:51 | 32.25907 | -14.55095 | 34107 ft | 411 kts | 218° |
| 2026-05-04 08:52 | 32.21154 | -14.58862 | 34109 ft | 412 kts | 218° |
| 2026-05-04 08:52 | 32.16410 | -14.62619 | 34104 ft | 412 kts | 218° |
| 2026-05-04 08:54 | 31.97489 | -14.77552 | 34113 ft | 410 kts | 217° |
| 2026-05-04 08:55 | 31.92763 | -14.81270 | 34110 ft | 409 kts | 217° |
| 2026-05-04 08:55 | 31.88014 | -14.85002 | 34116 ft | 410 kts | 217° |
| 2026-05-04 09:01 | 31.38434 | -15.23685 | 34106 ft | 407 kts | 217° |
| 2026-05-04 09:01 | 31.33745 | -15.27316 | 34099 ft | 406 kts | 218° |
| 2026-05-04 09:02 | 31.28953 | -15.30838 | 34101 ft | 407 kts | 213° |
| 2026-05-04 09:02 | 31.23991 | -15.34030 | 34104 ft | 408 kts | 213° |
| 2026-05-04 09:03 | 31.19021 | -15.37212 | 34098 ft | 408 kts | 213° |
| 2026-05-04 09:03 | 31.14039 | -15.40390 | 34106 ft | 406 kts | 213° |
| 2026-05-04 09:04 | 31.09101 | -15.43535 | 34112 ft | 405 kts | 213° |
| 2026-05-04 09:04 | 31.04139 | -15.46691 | 34105 ft | 407 kts | 213° |
| 2026-05-04 09:05 | 30.99174 | -15.49845 | 34104 ft | 406 kts | 213° |
| 2026-05-04 09:05 | 30.94243 | -15.52971 | 34094 ft | 405 kts | 213° |
| 2026-05-04 09:06 | 30.89285 | -15.56114 | 34102 ft | 406 kts | 213° |
| 2026-05-04 09:08 | 30.69457 | -15.68640 | 34098 ft | 406 kts | 213° |
| 2026-05-04 09:08 | 30.64511 | -15.71755 | 34095 ft | 404 kts | 213° |
| 2026-05-04 09:09 | 30.59579 | -15.74857 | 34099 ft | 403 kts | 213° |
| 2026-05-04 09:09 | 30.54656 | -15.77951 | 34100 ft | 404 kts | 213° |
| 2026-05-04 09:10 | 30.49714 | -15.81052 | 34093 ft | 402 kts | 213° |
| 2026-05-04 09:10 | 30.44814 | -15.84124 | 34096 ft | 402 kts | 213° |
| 2026-05-04 09:11 | 30.39892 | -15.87206 | 34091 ft | 403 kts | 213° |
| 2026-05-04 09:11 | 30.34992 | -15.90270 | 34087 ft | 399 kts | 213° |
| 2026-05-04 09:12 | 30.30135 | -15.93304 | 34224 ft | 395 kts | 213° |
| 2026-05-04 09:12 | 30.27686 | -15.94834 | 34354 ft | 395 kts | 214° |
| 2026-05-04 09:14 | 30.10778 | -16.05365 | 35044 ft | 395 kts | 214° |
| 2026-05-04 09:14 | 30.05977 | -16.08345 | 35056 ft | 391 kts | 214° |
| 2026-05-04 09:15 | 30.01184 | -16.11321 | 35051 ft | 390 kts | 214° |
| 2026-05-04 09:15 | 29.96408 | -16.14282 | 35050 ft | 391 kts | 214° |
| 2026-05-04 09:17 | 29.74860 | -16.27599 | 35055 ft | 389 kts | 214° |
| 2026-05-04 09:18 | 29.70128 | -16.30514 | 35051 ft | 388 kts | 214° |
| 2026-05-04 09:18 | 29.65346 | -16.33457 | 35049 ft | 389 kts | 214° |
| 2026-05-04 09:19 | 29.60578 | -16.36388 | 35049 ft | 390 kts | 214° |
| 2026-05-04 09:19 | 29.55805 | -16.39319 | 35052 ft | 387 kts | 214° |
| 2026-05-04 09:20 | 29.51067 | -16.42226 | 35051 ft | 390 kts | 214° |
| 2026-05-04 09:20 | 29.46275 | -16.45162 | 35044 ft | 388 kts | 214° |
| 2026-05-04 09:21 | 29.41534 | -16.48064 | 35052 ft | 387 kts | 214° |
| 2026-05-04 09:21 | 29.36780 | -16.50971 | 35041 ft | 386 kts | 214° |
| 2026-05-04 09:22 | 29.32062 | -16.53853 | 35043 ft | 385 kts | 214° |
| 2026-05-04 09:22 | 29.27307 | -16.56754 | 35044 ft | 385 kts | 214° |
| 2026-05-04 09:23 | 29.22608 | -16.59618 | 35040 ft | 385 kts | 214° |
| 2026-05-04 09:23 | 29.17853 | -16.62515 | 35042 ft | 386 kts | 214° |
| 2026-05-04 09:25 | 28.99008 | -16.73958 | 35057 ft | 382 kts | 214° |
| 2026-05-04 09:26 | 28.94302 | -16.76809 | 35055 ft | 384 kts | 214° |
| 2026-05-04 09:26 | 28.89568 | -16.79674 | 35051 ft | 383 kts | 214° |
| 2026-05-04 09:27 | 28.84885 | -16.82504 | 35059 ft | 383 kts | 214° |
| 2026-05-04 09:27 | 28.80187 | -16.85340 | 35058 ft | 382 kts | 214° |
| 2026-05-04 09:28 | 28.75458 | -16.88193 | 35052 ft | 382 kts | 214° |
| 2026-05-04 09:28 | 28.70800 | -16.90999 | 35054 ft | 379 kts | 214° |
| 2026-05-04 09:29 | 28.66129 | -16.93813 | 35055 ft | 382 kts | 214° |
| 2026-05-04 09:29 | 28.61449 | -16.96626 | 35052 ft | 380 kts | 214° |
| 2026-05-04 09:30 | 28.56783 | -16.99429 | 35050 ft | 380 kts | 214° |
| 2026-05-04 09:30 | 28.52092 | -17.02246 | 35046 ft | 381 kts | 214° |
| 2026-05-04 09:31 | 28.47376 | -17.05073 | 35039 ft | 381 kts | 214° |
| 2026-05-04 09:31 | 28.42718 | -17.07862 | 35039 ft | 379 kts | 214° |
| 2026-05-04 09:32 | 28.38045 | -17.10659 | 35040 ft | 380 kts | 214° |
| 2026-05-04 09:34 | 28.19346 | -17.21820 | 35045 ft | 381 kts | 214° |
| 2026-05-04 09:34 | 28.14668 | -17.24603 | 35037 ft | 379 kts | 214° |
| 2026-05-04 09:35 | 28.09980 | -17.27393 | 35041 ft | 379 kts | 214° |
| 2026-05-04 09:35 | 28.05318 | -17.30163 | 35040 ft | 380 kts | 214° |
| 2026-05-04 09:37 | 27.86023 | -17.29596 | 35041 ft | 423 kts | 176° |
| 2026-05-04 09:37 | 27.83169 | -17.28833 | 35032 ft | 422 kts | 177° |
| 2026-05-04 09:38 | 27.77430 | -17.27301 | 35043 ft | 424 kts | 176° |
| 2026-05-04 09:38 | 27.71686 | -17.25766 | 35038 ft | 423 kts | 177° |
| 2026-05-04 09:39 | 27.65949 | -17.24238 | 35037 ft | 424 kts | 176° |
| 2026-05-04 09:39 | 27.60207 | -17.22707 | 35031 ft | 421 kts | 176° |
| 2026-05-04 09:40 | 27.54481 | -17.21185 | 35031 ft | 424 kts | 177° |
| 2026-05-04 09:40 | 27.48749 | -17.19662 | 35036 ft | 425 kts | 176° |
| 2026-05-04 09:42 | 27.25796 | -17.13577 | 35034 ft | 424 kts | 176° |
| 2026-05-04 09:43 | 27.20048 | -17.12058 | 35028 ft | 424 kts | 176° |
| 2026-05-04 09:43 | 27.14277 | -17.10534 | 35026 ft | 424 kts | 176° |
| 2026-05-04 09:44 | 27.08535 | -17.09020 | 35029 ft | 425 kts | 176° |
| 2026-05-04 09:46 | 26.85716 | -17.05403 | 35045 ft | 397 kts | 202° |
| 2026-05-04 09:46 | 26.80354 | -17.06928 | 35035 ft | 395 kts | 203° |
| 2026-05-04 09:47 | 26.75077 | -17.08526 | 35030 ft | 392 kts | 203° |
| 2026-05-04 09:49 | 26.54012 | -17.15092 | 35030 ft | 395 kts | 203° |
| 2026-05-04 09:51 | 26.35542 | -17.20850 | 35025 ft | 394 kts | 203° |
| 2026-05-04 09:51 | 26.30268 | -17.22492 | 35025 ft | 394 kts | 203° |
| 2026-05-04 09:52 | 26.24988 | -17.24133 | 35015 ft | 393 kts | 203° |
| 2026-05-04 09:52 | 26.19699 | -17.25776 | 35017 ft | 393 kts | 203° |
| 2026-05-04 09:53 | 26.14449 | -17.27405 | 35016 ft | 393 kts | 203° |
| 2026-05-04 09:53 | 26.09136 | -17.29052 | 35017 ft | 396 kts | 203° |
| 2026-05-04 09:54 | 26.03847 | -17.30689 | 35006 ft | 396 kts | 203° |
| 2026-05-04 09:54 | 25.98545 | -17.32330 | 35004 ft | 394 kts | 203° |
| 2026-05-04 09:55 | 25.93243 | -17.33969 | 34997 ft | 395 kts | 203° |
| 2026-05-04 09:55 | 25.87926 | -17.35611 | 35004 ft | 395 kts | 203° |
| 2026-05-04 09:56 | 25.82628 | -17.37246 | 35000 ft | 395 kts | 203° |
| 2026-05-04 09:56 | 25.77336 | -17.38877 | 35000 ft | 396 kts | 203° |
| 2026-05-04 09:57 | 25.72020 | -17.40514 | 34992 ft | 395 kts | 203° |
| 2026-05-04 09:57 | 25.66721 | -17.42145 | 34993 ft | 395 kts | 203° |
| 2026-05-04 09:58 | 25.61432 | -17.43771 | 34996 ft | 397 kts | 203° |
| 2026-05-04 09:58 | 25.56089 | -17.45412 | 35001 ft | 396 kts | 203° |
| 2026-05-04 10:00 | 25.34850 | -17.51920 | 34990 ft | 396 kts | 202° |
| 2026-05-04 10:04 | 24.97940 | -17.64058 | 35000 ft | 386 kts | 217° |
| 2026-05-04 10:04 | 24.93360 | -17.67164 | 34999 ft | 388 kts | 216° |
| 2026-05-04 10:05 | 24.88796 | -17.70289 | 34999 ft | 385 kts | 217° |
| 2026-05-04 10:05 | 24.84218 | -17.73439 | 35002 ft | 386 kts | 217° |
| 2026-05-04 10:06 | 24.79672 | -17.76568 | 35002 ft | 387 kts | 217° |
| 2026-05-04 10:06 | 24.75103 | -17.79713 | 34998 ft | 388 kts | 217° |
| 2026-05-04 10:08 | 24.59118 | -17.90695 | 34994 ft | 387 kts | 217° |
| 2026-05-04 10:08 | 24.54540 | -17.93835 | 34994 ft | 387 kts | 217° |
| 2026-05-04 10:09 | 24.49988 | -17.96954 | 34997 ft | 388 kts | 217° |
| 2026-05-04 10:09 | 24.45406 | -18.00090 | 34992 ft | 387 kts | 217° |
| 2026-05-04 10:10 | 24.40842 | -18.03212 | 34993 ft | 388 kts | 217° |
| 2026-05-04 10:10 | 24.36255 | -18.06347 | 34994 ft | 389 kts | 217° |
| 2026-05-04 10:11 | 24.31643 | -18.09495 | 34991 ft | 389 kts | 217° |
| 2026-05-04 10:11 | 24.27060 | -18.12622 | 34990 ft | 388 kts | 217° |
| 2026-05-04 10:12 | 24.22456 | -18.15761 | 34991 ft | 388 kts | 217° |
| 2026-05-04 10:12 | 24.17886 | -18.18872 | 34990 ft | 389 kts | 217° |